Connecticut River @ Montague City, Ma

Connecticut River at Montague City
 Total Drainage Area: 7,865 sq. miles 
 Drainage Area Controlled by Corps Dams: 1,154 sq. miles (15%) 
 Warning Flow/Stage: 64,200 cfs / 25.0 feet 
 Flood Flow/Stage: 89,750 cfs / 30.0 feet 
Date Time
(Eastern)
Stage
(ft)
Flow
(cfs)
CSM
(cfs / sq. mi.)
Jan-31 03:30 pm 11.81 12,662 1.6
Jan-31 02:30 pm 12.12 13,623 1.7
Jan-31 01:30 pm 12.40 14,519 1.9
Jan-31 12:30 pm 12.44 14,650 1.9
Jan-31 11:30 am 12.51 14,880 1.9
Jan-31 10:30 am 12.62 15,246 1.9
Jan-31 09:30 am 12.83 15,956 2.0
Jan-31 08:30 am 13.27 17,490 2.2
Jan-31 07:30 am 13.28 17,527 2.2
Jan-31 06:30 am 13.29 17,564 2.2
Jan-31 05:30 am 13.29 17,564 2.2
Jan-31 04:30 am 13.28 17,527 2.2
Jan-31 03:30 am 13.26 17,455 2.2
Jan-31 02:30 am 13.27 17,490 2.2
Jan-31 01:30 am 13.26 17,455 2.2
Jan-31 12:30 am 13.22 17,313 2.2
Jan-30 11:30 pm 13.19 17,206 2.2
Jan-30 10:30 pm 13.16 17,101 2.2
Jan-30 09:30 pm 13.15 17,065 2.2
Jan-30 08:30 pm 13.13 16,995 2.2
Jan-30 07:30 pm 13.10 16,890 2.2
Jan-30 06:30 pm 13.07 16,785 2.1
Jan-30 05:30 pm 13.02 16,610 2.1
Jan-30 04:30 pm 12.91 16,230 2.1
Jan-30 03:30 pm 12.66 15,380 2.0
Report Generated January 31, 2023 09:10 pm